sensor_id;sensor_type;location;lat;lon;timestamp;P1;durP1;ratioP1;P2;durP2;ratioP2
32613;SDS011;19031;51.400;6.770;2022-10-31T00:00:41;9.10;;;4.05;;
32613;SDS011;19031;51.400;6.770;2022-10-31T00:03:06;14.27;;;4.43;;
32613;SDS011;19031;51.400;6.770;2022-10-31T00:05:32;7.38;;;3.58;;
32613;SDS011;19031;51.400;6.770;2022-10-31T00:07:57;10.52;;;3.80;;
32613;SDS011;19031;51.400;6.770;2022-10-31T00:10:23;8.52;;;3.22;;
32613;SDS011;19031;51.400;6.770;2022-10-31T00:12:48;13.25;;;3.85;;
32613;SDS011;19031;51.400;6.770;2022-10-31T00:15:14;16.13;;;4.50;;
32613;SDS011;19031;51.400;6.770;2022-10-31T00:17:39;7.68;;;4.15;;
32613;SDS011;19031;51.400;6.770;2022-10-31T00:20:05;9.55;;;3.95;;
32613;SDS011;19031;51.400;6.770;2022-10-31T00:22:31;12.05;;;5.07;;
32613;SDS011;19031;51.400;6.770;2022-10-31T00:24:56;6.82;;;3.63;;
32613;SDS011;19031;51.400;6.770;2022-10-31T00:27:22;12.45;;;5.20;;
32613;SDS011;19031;51.400;6.770;2022-10-31T00:29:47;12.32;;;4.53;;
32613;SDS011;19031;51.400;6.770;2022-10-31T00:32:13;8.68;;;3.90;;
32613;SDS011;19031;51.400;6.770;2022-10-31T00:34:39;7.68;;;3.50;;
32613;SDS011;19031;51.400;6.770;2022-10-31T00:37:04;5.65;;;3.40;;
32613;SDS011;19031;51.400;6.770;2022-10-31T00:39:30;5.00;;;3.40;;
32613;SDS011;19031;51.400;6.770;2022-10-31T00:41:55;12.20;;;4.75;;
32613;SDS011;19031;51.400;6.770;2022-10-31T00:44:21;12.13;;;4.22;;
32613;SDS011;19031;51.400;6.770;2022-10-31T00:46:46;15.18;;;4.97;;
32613;SDS011;19031;51.400;6.770;2022-10-31T00:49:12;7.82;;;3.92;;
32613;SDS011;19031;51.400;6.770;2022-10-31T00:51:37;13.05;;;4.05;;
32613;SDS011;19031;51.400;6.770;2022-10-31T00:54:03;11.13;;;4.85;;
32613;SDS011;19031;51.400;6.770;2022-10-31T00:56:29;11.82;;;4.22;;
32613;SDS011;19031;51.400;6.770;2022-10-31T00:58:54;8.35;;;4.28;;
32613;SDS011;19031;51.400;6.770;2022-10-31T01:01:20;10.27;;;4.25;;
32613;SDS011;19031;51.400;6.770;2022-10-31T01:03:45;8.10;;;4.63;;
32613;SDS011;19031;51.400;6.770;2022-10-31T01:06:11;12.63;;;4.68;;
32613;SDS011;19031;51.400;6.770;2022-10-31T01:08:39;11.45;;;3.88;;
32613;SDS011;19031;51.400;6.770;2022-10-31T01:13:38;13.77;;;4.00;;
32613;SDS011;19031;51.400;6.770;2022-10-31T01:16:04;7.80;;;4.05;;
32613;SDS011;19031;51.400;6.770;2022-10-31T01:18:31;7.20;;;4.00;;
32613;SDS011;19031;51.400;6.770;2022-10-31T01:21:04;11.77;;;4.40;;
32613;SDS011;19031;51.400;6.770;2022-10-31T01:23:30;8.82;;;2.92;;
32613;SDS011;19031;51.400;6.770;2022-10-31T01:26:00;8.65;;;3.92;;
32613;SDS011;19031;51.400;6.770;2022-10-31T01:28:39;10.68;;;4.28;;
32613;SDS011;19031;51.400;6.770;2022-10-31T01:31:40;10.65;;;4.25;;
32613;SDS011;19031;51.400;6.770;2022-10-31T01:34:06;11.30;;;3.25;;
32613;SDS011;19031;51.400;6.770;2022-10-31T01:36:33;15.55;;;3.58;;
32613;SDS011;19031;51.400;6.770;2022-10-31T01:39:02;8.65;;;3.90;;
32613;SDS011;19031;51.400;6.770;2022-10-31T01:41:31;9.85;;;4.35;;
32613;SDS011;19031;51.400;6.770;2022-10-31T01:43:59;9.88;;;3.03;;
32613;SDS011;19031;51.400;6.770;2022-10-31T01:49:04;11.57;;;3.35;;
32613;SDS011;19031;51.400;6.770;2022-10-31T01:51:38;13.73;;;4.28;;
32613;SDS011;19031;51.400;6.770;2022-10-31T01:54:11;12.68;;;4.30;;
32613;SDS011;19031;51.400;6.770;2022-10-31T01:56:40;6.18;;;3.47;;
32613;SDS011;19031;51.400;6.770;2022-10-31T01:59:13;7.72;;;3.75;;
32613;SDS011;19031;51.400;6.770;2022-10-31T02:01:41;7.28;;;4.32;;
32613;SDS011;19031;51.400;6.770;2022-10-31T02:04:07;12.23;;;4.55;;
32613;SDS011;19031;51.400;6.770;2022-10-31T02:09:30;13.80;;;4.82;;
32613;SDS011;19031;51.400;6.770;2022-10-31T02:11:58;21.08;;;4.45;;
32613;SDS011;19031;51.400;6.770;2022-10-31T02:14:25;8.18;;;4.25;;
32613;SDS011;19031;51.400;6.770;2022-10-31T02:16:53;8.25;;;4.55;;
32613;SDS011;19031;51.400;6.770;2022-10-31T02:20:05;8.48;;;4.88;;
32613;SDS011;19031;51.400;6.770;2022-10-31T02:22:08;19.85;;;4.75;;
32613;SDS011;19031;51.400;6.770;2022-10-31T02:30:40;14.60;;;4.60;;
32613;SDS011;19031;51.400;6.770;2022-10-31T02:35:52;12.65;;;4.15;;
32613;SDS011;19031;51.400;6.770;2022-10-31T02:38:39;9.52;;;4.30;;
32613;SDS011;19031;51.400;6.770;2022-10-31T02:41:15;14.13;;;4.78;;
32613;SDS011;19031;51.400;6.770;2022-10-31T02:43:52;6.57;;;3.80;;
32613;SDS011;19031;51.400;6.770;2022-10-31T02:46:32;8.02;;;4.30;;
32613;SDS011;19031;51.400;6.770;2022-10-31T02:49:15;11.30;;;4.25;;
32613;SDS011;19031;51.400;6.770;2022-10-31T02:51:47;16.45;;;5.00;;
32613;SDS011;19031;51.400;6.770;2022-10-31T02:54:21;21.70;;;4.03;;
32613;SDS011;19031;51.400;6.770;2022-10-31T02:56:49;9.80;;;3.75;;
32613;SDS011;19031;51.400;6.770;2022-10-31T02:59:17;13.80;;;4.70;;
32613;SDS011;19031;51.400;6.770;2022-10-31T03:04:50;11.93;;;4.53;;
32613;SDS011;19031;51.400;6.770;2022-10-31T03:07:55;10.95;;;3.85;;
32613;SDS011;19031;51.400;6.770;2022-10-31T03:13:31;6.90;;;3.45;;
32613;SDS011;19031;51.400;6.770;2022-10-31T03:16:25;7.47;;;3.67;;
32613;SDS011;19031;51.400;6.770;2022-10-31T03:19:05;13.68;;;5.00;;
32613;SDS011;19031;51.400;6.770;2022-10-31T03:21:38;7.15;;;3.55;;
32613;SDS011;19031;51.400;6.770;2022-10-31T03:24:15;10.93;;;3.72;;
32613;SDS011;19031;51.400;6.770;2022-10-31T03:26:42;15.02;;;5.15;;
32613;SDS011;19031;51.400;6.770;2022-10-31T03:29:14;17.08;;;4.22;;
32613;SDS011;19031;51.400;6.770;2022-10-31T03:31:46;7.68;;;4.15;;
32613;SDS011;19031;51.400;6.770;2022-10-31T03:34:19;10.38;;;4.75;;
32613;SDS011;19031;51.400;6.770;2022-10-31T03:36:46;14.00;;;4.75;;
32613;SDS011;19031;51.400;6.770;2022-10-31T03:39:15;11.05;;;4.75;;
32613;SDS011;19031;51.400;6.770;2022-10-31T03:41:44;10.48;;;3.72;;
32613;SDS011;19031;51.400;6.770;2022-10-31T03:44:19;9.52;;;4.95;;
32613;SDS011;19031;51.400;6.770;2022-10-31T03:46:47;7.47;;;3.78;;
32613;SDS011;19031;51.400;6.770;2022-10-31T03:49:13;8.18;;;4.60;;
32613;SDS011;19031;51.400;6.770;2022-10-31T03:59:53;9.00;;;3.95;;
32613;SDS011;19031;51.400;6.770;2022-10-31T04:02:33;9.68;;;5.60;;
32613;SDS011;19031;51.400;6.770;2022-10-31T04:05:03;11.32;;;4.80;;
32613;SDS011;19031;51.400;6.770;2022-10-31T04:07:31;7.07;;;4.22;;
32613;SDS011;19031;51.400;6.770;2022-10-31T04:10:02;11.52;;;4.63;;
32613;SDS011;19031;51.400;6.770;2022-10-31T04:12:31;8.57;;;4.00;;
32613;SDS011;19031;51.400;6.770;2022-10-31T04:14:59;20.98;;;6.05;;
32613;SDS011;19031;51.400;6.770;2022-10-31T04:17:29;11.45;;;5.32;;
32613;SDS011;19031;51.400;6.770;2022-10-31T04:20:01;12.25;;;4.75;;
32613;SDS011;19031;51.400;6.770;2022-10-31T04:22:27;12.70;;;5.13;;
32613;SDS011;19031;51.400;6.770;2022-10-31T04:24:52;10.93;;;5.28;;
32613;SDS011;19031;51.400;6.770;2022-10-31T04:27:18;15.40;;;4.45;;
32613;SDS011;19031;51.400;6.770;2022-10-31T04:29:43;15.00;;;4.65;;
32613;SDS011;19031;51.400;6.770;2022-10-31T04:32:09;13.02;;;5.25;;
32613;SDS011;19031;51.400;6.770;2022-10-31T04:34:34;10.05;;;4.72;;
32613;SDS011;19031;51.400;6.770;2022-10-31T04:37:00;8.90;;;4.57;;
32613;SDS011;19031;51.400;6.770;2022-10-31T04:39:25;16.88;;;5.35;;
32613;SDS011;19031;51.400;6.770;2022-10-31T04:41:51;15.32;;;5.10;;
32613;SDS011;19031;51.400;6.770;2022-10-31T04:44:17;12.02;;;5.13;;
32613;SDS011;19031;51.400;6.770;2022-10-31T04:46:42;9.32;;;4.90;;
32613;SDS011;19031;51.400;6.770;2022-10-31T04:49:08;9.63;;;4.50;;
32613;SDS011;19031;51.400;6.770;2022-10-31T04:51:33;8.80;;;4.93;;
32613;SDS011;19031;51.400;6.770;2022-10-31T04:53:59;7.50;;;3.88;;
32613;SDS011;19031;51.400;6.770;2022-10-31T04:56:24;9.52;;;4.22;;
32613;SDS011;19031;51.400;6.770;2022-10-31T04:58:50;12.60;;;5.53;;
32613;SDS011;19031;51.400;6.770;2022-10-31T05:01:16;12.40;;;5.05;;
32613;SDS011;19031;51.400;6.770;2022-10-31T05:03:41;10.32;;;5.43;;
32613;SDS011;19031;51.400;6.770;2022-10-31T05:06:07;10.48;;;5.30;;
32613;SDS011;19031;51.400;6.770;2022-10-31T05:08:33;10.25;;;4.75;;
32613;SDS011;19031;51.400;6.770;2022-10-31T05:10:59;7.75;;;4.40;;
32613;SDS011;19031;51.400;6.770;2022-10-31T05:13:26;11.07;;;5.40;;
32613;SDS011;19031;51.400;6.770;2022-10-31T05:15:52;12.55;;;5.35;;
32613;SDS011;19031;51.400;6.770;2022-10-31T05:18:18;11.73;;;5.10;;
32613;SDS011;19031;51.400;6.770;2022-10-31T05:20:43;17.88;;;5.95;;
32613;SDS011;19031;51.400;6.770;2022-10-31T05:23:09;9.70;;;4.35;;
32613;SDS011;19031;51.400;6.770;2022-10-31T05:25:34;12.95;;;6.18;;
32613;SDS011;19031;51.400;6.770;2022-10-31T05:28:00;12.35;;;5.57;;
32613;SDS011;19031;51.400;6.770;2022-10-31T05:30:27;19.50;;;5.30;;
32613;SDS011;19031;51.400;6.770;2022-10-31T05:32:54;15.45;;;5.53;;
32613;SDS011;19031;51.400;6.770;2022-10-31T05:35:25;14.93;;;5.32;;
32613;SDS011;19031;51.400;6.770;2022-10-31T05:37:55;14.80;;;5.40;;
32613;SDS011;19031;51.400;6.770;2022-10-31T05:40:22;12.65;;;5.97;;
32613;SDS011;19031;51.400;6.770;2022-10-31T05:42:52;16.45;;;5.35;;
32613;SDS011;19031;51.400;6.770;2022-10-31T05:45:19;8.23;;;4.40;;
32613;SDS011;19031;51.400;6.770;2022-10-31T05:47:53;9.90;;;5.80;;
32613;SDS011;19031;51.400;6.770;2022-10-31T05:50:21;8.57;;;5.05;;
32613;SDS011;19031;51.400;6.770;2022-10-31T05:52:47;11.05;;;5.38;;
32613;SDS011;19031;51.400;6.770;2022-10-31T05:55:20;10.77;;;5.40;;
32613;SDS011;19031;51.400;6.770;2022-10-31T05:57:45;15.15;;;5.28;;
32613;SDS011;19031;51.400;6.770;2022-10-31T06:00:11;15.07;;;4.75;;
32613;SDS011;19031;51.400;6.770;2022-10-31T06:02:37;15.40;;;5.57;;
32613;SDS011;19031;51.400;6.770;2022-10-31T06:05:03;15.35;;;6.40;;
32613;SDS011;19031;51.400;6.770;2022-10-31T06:07:32;11.70;;;5.70;;
32613;SDS011;19031;51.400;6.770;2022-10-31T06:09:59;12.98;;;5.25;;
32613;SDS011;19031;51.400;6.770;2022-10-31T06:12:25;14.43;;;4.90;;
32613;SDS011;19031;51.400;6.770;2022-10-31T06:14:51;16.27;;;5.13;;
32613;SDS011;19031;51.400;6.770;2022-10-31T06:17:16;13.50;;;5.50;;
32613;SDS011;19031;51.400;6.770;2022-10-31T06:19:42;12.68;;;5.82;;
32613;SDS011;19031;51.400;6.770;2022-10-31T06:22:07;13.90;;;5.93;;
32613;SDS011;19031;51.400;6.770;2022-10-31T06:24:33;11.85;;;5.38;;
32613;SDS011;19031;51.400;6.770;2022-10-31T06:26:58;17.25;;;5.25;;
32613;SDS011;19031;51.400;6.770;2022-10-31T06:29:24;14.85;;;4.80;;
32613;SDS011;19031;51.400;6.770;2022-10-31T06:31:53;12.25;;;5.03;;
32613;SDS011;19031;51.400;6.770;2022-10-31T06:34:18;10.23;;;6.07;;
32613;SDS011;19031;51.400;6.770;2022-10-31T06:36:45;10.68;;;4.18;;
32613;SDS011;19031;51.400;6.770;2022-10-31T06:39:11;10.48;;;4.82;;
32613;SDS011;19031;51.400;6.770;2022-10-31T06:41:37;11.93;;;5.43;;
32613;SDS011;19031;51.400;6.770;2022-10-31T06:44:04;18.27;;;5.30;;
32613;SDS011;19031;51.400;6.770;2022-10-31T06:46:30;11.85;;;5.80;;
32613;SDS011;19031;51.400;6.770;2022-10-31T06:48:56;23.65;;;6.93;;
32613;SDS011;19031;51.400;6.770;2022-10-31T06:51:22;20.17;;;6.57;;
32613;SDS011;19031;51.400;6.770;2022-10-31T06:53:47;12.18;;;6.07;;
32613;SDS011;19031;51.400;6.770;2022-10-31T06:56:13;14.68;;;5.57;;
32613;SDS011;19031;51.400;6.770;2022-10-31T06:58:38;11.70;;;6.63;;
32613;SDS011;19031;51.400;6.770;2022-10-31T07:01:04;14.40;;;5.78;;
32613;SDS011;19031;51.400;6.770;2022-10-31T07:03:29;12.23;;;6.63;;
32613;SDS011;19031;51.400;6.770;2022-10-31T07:05:55;14.25;;;7.50;;
32613;SDS011;19031;51.400;6.770;2022-10-31T07:08:23;17.60;;;5.80;;
32613;SDS011;19031;51.400;6.770;2022-10-31T07:10:53;16.08;;;6.50;;
32613;SDS011;19031;51.400;6.770;2022-10-31T07:13:20;14.35;;;5.78;;
32613;SDS011;19031;51.400;6.770;2022-10-31T07:15:51;19.73;;;5.93;;
32613;SDS011;19031;51.400;6.770;2022-10-31T07:18:18;13.88;;;6.13;;
32613;SDS011;19031;51.400;6.770;2022-10-31T07:20:44;15.27;;;6.55;;
32613;SDS011;19031;51.400;6.770;2022-10-31T07:23:10;12.57;;;6.03;;
32613;SDS011;19031;51.400;6.770;2022-10-31T07:25:36;9.50;;;5.85;;
32613;SDS011;19031;51.400;6.770;2022-10-31T07:28:02;11.07;;;5.20;;
32613;SDS011;19031;51.400;6.770;2022-10-31T07:30:28;9.00;;;5.53;;
32613;SDS011;19031;51.400;6.770;2022-10-31T07:32:54;8.70;;;5.10;;
32613;SDS011;19031;51.400;6.770;2022-10-31T07:35:24;14.52;;;6.13;;
32613;SDS011;19031;51.400;6.770;2022-10-31T07:37:52;13.57;;;6.38;;
32613;SDS011;19031;51.400;6.770;2022-10-31T07:40:31;11.50;;;5.85;;
32613;SDS011;19031;51.400;6.770;2022-10-31T07:42:57;17.45;;;6.07;;
32613;SDS011;19031;51.400;6.770;2022-10-31T07:45:25;17.77;;;6.30;;
32613;SDS011;19031;51.400;6.770;2022-10-31T07:47:51;13.18;;;6.40;;
32613;SDS011;19031;51.400;6.770;2022-10-31T07:52:46;15.13;;;6.20;;
32613;SDS011;19031;51.400;6.770;2022-10-31T07:55:12;13.77;;;6.68;;
32613;SDS011;19031;51.400;6.770;2022-10-31T07:57:39;16.33;;;6.43;;
32613;SDS011;19031;51.400;6.770;2022-10-31T08:00:07;17.58;;;6.55;;
32613;SDS011;19031;51.400;6.770;2022-10-31T08:02:37;17.38;;;7.13;;
32613;SDS011;19031;51.400;6.770;2022-10-31T08:05:03;15.50;;;6.20;;
32613;SDS011;19031;51.400;6.770;2022-10-31T08:07:29;19.38;;;7.82;;
32613;SDS011;19031;51.400;6.770;2022-10-31T08:10:00;13.63;;;6.35;;
32613;SDS011;19031;51.400;6.770;2022-10-31T08:12:26;11.38;;;6.13;;
32613;SDS011;19031;51.400;6.770;2022-10-31T08:14:52;15.43;;;7.90;;
32613;SDS011;19031;51.400;6.770;2022-10-31T08:17:18;11.85;;;6.75;;
32613;SDS011;19031;51.400;6.770;2022-10-31T08:19:46;12.15;;;6.82;;
32613;SDS011;19031;51.400;6.770;2022-10-31T08:22:12;19.08;;;8.48;;
32613;SDS011;19031;51.400;6.770;2022-10-31T08:24:37;20.70;;;8.90;;
32613;SDS011;19031;51.400;6.770;2022-10-31T08:27:03;17.17;;;8.30;;
32613;SDS011;19031;51.400;6.770;2022-10-31T08:29:28;14.77;;;8.27;;
32613;SDS011;19031;51.400;6.770;2022-10-31T08:31:54;15.65;;;8.90;;
32613;SDS011;19031;51.400;6.770;2022-10-31T08:34:22;17.58;;;7.65;;
32613;SDS011;19031;51.400;6.770;2022-10-31T08:36:47;17.85;;;8.45;;
32613;SDS011;19031;51.400;6.770;2022-10-31T08:39:13;30.63;;;8.60;;
32613;SDS011;19031;51.400;6.770;2022-10-31T08:41:38;22.08;;;8.35;;
32613;SDS011;19031;51.400;6.770;2022-10-31T08:44:04;13.10;;;8.25;;
32613;SDS011;19031;51.400;6.770;2022-10-31T08:46:30;12.35;;;6.60;;
32613;SDS011;19031;51.400;6.770;2022-10-31T08:48:56;17.65;;;7.15;;
32613;SDS011;19031;51.400;6.770;2022-10-31T08:51:22;19.65;;;7.45;;
32613;SDS011;19031;51.400;6.770;2022-10-31T08:53:50;16.45;;;6.68;;
32613;SDS011;19031;51.400;6.770;2022-10-31T08:56:19;18.95;;;7.65;;
32613;SDS011;19031;51.400;6.770;2022-10-31T08:58:48;15.63;;;7.28;;
32613;SDS011;19031;51.400;6.770;2022-10-31T09:01:14;16.25;;;7.28;;
32613;SDS011;19031;51.400;6.770;2022-10-31T09:03:42;18.25;;;8.50;;
32613;SDS011;19031;51.400;6.770;2022-10-31T09:06:11;21.45;;;8.63;;
32613;SDS011;19031;51.400;6.770;2022-10-31T09:08:36;18.50;;;8.52;;
32613;SDS011;19031;51.400;6.770;2022-10-31T09:11:02;19.35;;;8.05;;
32613;SDS011;19031;51.400;6.770;2022-10-31T09:13:29;17.42;;;7.30;;
32613;SDS011;19031;51.400;6.770;2022-10-31T09:16:00;19.35;;;7.78;;
32613;SDS011;19031;51.400;6.770;2022-10-31T09:18:26;22.00;;;9.27;;
32613;SDS011;19031;51.400;6.770;2022-10-31T09:20:52;18.58;;;8.27;;
32613;SDS011;19031;51.400;6.770;2022-10-31T09:23:31;19.95;;;9.43;;
32613;SDS011;19031;51.400;6.770;2022-10-31T09:25:58;25.40;;;8.57;;
32613;SDS011;19031;51.400;6.770;2022-10-31T09:28:26;18.88;;;8.20;;
32613;SDS011;19031;51.400;6.770;2022-10-31T09:30:52;17.65;;;8.38;;
32613;SDS011;19031;51.400;6.770;2022-10-31T09:33:24;17.58;;;8.52;;
32613;SDS011;19031;51.400;6.770;2022-10-31T09:35:53;22.83;;;8.90;;
32613;SDS011;19031;51.400;6.770;2022-10-31T09:38:19;18.90;;;8.60;;
32613;SDS011;19031;51.400;6.770;2022-10-31T09:43:57;24.70;;;8.73;;
32613;SDS011;19031;51.400;6.770;2022-10-31T09:52:38;16.90;;;7.57;;
32613;SDS011;19031;51.400;6.770;2022-10-31T09:55:20;20.60;;;8.40;;
32613;SDS011;19031;51.400;6.770;2022-10-31T09:57:51;16.02;;;8.57;;
32613;SDS011;19031;51.400;6.770;2022-10-31T10:00:20;20.92;;;7.35;;
32613;SDS011;19031;51.400;6.770;2022-10-31T10:02:56;16.88;;;7.78;;
32613;SDS011;19031;51.400;6.770;2022-10-31T10:05:34;27.60;;;7.63;;
32613;SDS011;19031;51.400;6.770;2022-10-31T10:08:18;21.80;;;8.37;;
32613;SDS011;19031;51.400;6.770;2022-10-31T10:25:39;17.73;;;7.68;;
32613;SDS011;19031;51.400;6.770;2022-10-31T10:31:01;23.67;;;8.85;;
32613;SDS011;19031;51.400;6.770;2022-10-31T10:33:40;20.48;;;8.93;;
32613;SDS011;19031;51.400;6.770;2022-10-31T10:41:54;15.10;;;7.43;;
32613;SDS011;19031;51.400;6.770;2022-10-31T10:44:45;21.98;;;8.93;;
32613;SDS011;19031;51.400;6.770;2022-10-31T10:47:47;23.38;;;9.35;;
32613;SDS011;19031;51.400;6.770;2022-10-31T10:50:25;23.88;;;8.45;;
32613;SDS011;19031;51.400;6.770;2022-10-31T10:58:40;23.48;;;8.90;;
32613;SDS011;19031;51.400;6.770;2022-10-31T11:01:11;32.10;;;9.73;;
32613;SDS011;19031;51.400;6.770;2022-10-31T11:03:46;21.08;;;8.73;;
32613;SDS011;19031;51.400;6.770;2022-10-31T11:06:18;20.45;;;9.23;;
32613;SDS011;19031;51.400;6.770;2022-10-31T11:09:14;19.17;;;8.52;;
32613;SDS011;19031;51.400;6.770;2022-10-31T11:11:50;20.23;;;8.68;;
32613;SDS011;19031;51.400;6.770;2022-10-31T11:14:18;22.77;;;7.97;;
32613;SDS011;19031;51.400;6.770;2022-10-31T11:16:46;23.25;;;8.98;;
32613;SDS011;19031;51.400;6.770;2022-10-31T11:19:16;21.48;;;8.32;;
32613;SDS011;19031;51.400;6.770;2022-10-31T11:22:14;20.48;;;7.30;;
32613;SDS011;19031;51.400;6.770;2022-10-31T11:24:43;21.55;;;8.43;;
32613;SDS011;19031;51.400;6.770;2022-10-31T11:27:16;20.27;;;7.57;;
32613;SDS011;19031;51.400;6.770;2022-10-31T11:29:46;16.52;;;6.88;;
32613;SDS011;19031;51.400;6.770;2022-10-31T11:35:02;14.63;;;7.47;;
32613;SDS011;19031;51.400;6.770;2022-10-31T11:37:34;21.03;;;7.87;;
32613;SDS011;19031;51.400;6.770;2022-10-31T11:40:05;16.42;;;7.55;;
32613;SDS011;19031;51.400;6.770;2022-10-31T11:45:26;22.00;;;8.35;;
32613;SDS011;19031;51.400;6.770;2022-10-31T11:47:59;15.05;;;6.53;;
32613;SDS011;19031;51.400;6.770;2022-10-31T11:50:34;16.40;;;7.38;;
32613;SDS011;19031;51.400;6.770;2022-10-31T11:53:15;13.88;;;6.80;;
32613;SDS011;19031;51.400;6.770;2022-10-31T11:55:44;14.82;;;7.25;;
32613;SDS011;19031;51.400;6.770;2022-10-31T11:58:20;16.55;;;7.10;;
32613;SDS011;19031;51.400;6.770;2022-10-31T12:00:49;19.42;;;6.57;;
32613;SDS011;19031;51.400;6.770;2022-10-31T12:08:40;12.95;;;6.50;;
32613;SDS011;19031;51.400;6.770;2022-10-31T12:22:08;11.88;;;5.88;;
32613;SDS011;19031;51.400;6.770;2022-10-31T12:25:04;10.77;;;5.00;;
32613;SDS011;19031;51.400;6.770;2022-10-31T12:27:52;15.30;;;5.93;;
32613;SDS011;19031;51.400;6.770;2022-10-31T12:58:31;9.63;;;3.42;;
32613;SDS011;19031;51.400;6.770;2022-10-31T13:01:11;7.70;;;3.13;;
32613;SDS011;19031;51.400;6.770;2022-10-31T13:04:01;8.15;;;2.67;;
32613;SDS011;19031;51.400;6.770;2022-10-31T13:06:41;7.68;;;2.97;;
32613;SDS011;19031;51.400;6.770;2022-10-31T13:09:22;5.97;;;2.17;;
32613;SDS011;19031;51.400;6.770;2022-10-31T13:12:04;8.35;;;2.20;;
32613;SDS011;19031;51.400;6.770;2022-10-31T13:14:42;8.57;;;3.08;;
32613;SDS011;19031;51.400;6.770;2022-10-31T13:17:28;7.35;;;2.17;;
32613;SDS011;19031;51.400;6.770;2022-10-31T13:22:44;4.40;;;2.15;;
32613;SDS011;19031;51.400;6.770;2022-10-31T13:25:20;8.55;;;2.65;;
32613;SDS011;19031;51.400;6.770;2022-10-31T13:28:08;11.85;;;3.35;;
32613;SDS011;19031;51.400;6.770;2022-10-31T13:30:47;6.78;;;2.38;;
32613;SDS011;19031;51.400;6.770;2022-10-31T13:33:22;5.47;;;1.70;;
32613;SDS011;19031;51.400;6.770;2022-10-31T13:36:07;6.25;;;1.98;;
32613;SDS011;19031;51.400;6.770;2022-10-31T13:41:32;7.43;;;2.30;;
32613;SDS011;19031;51.400;6.770;2022-10-31T13:44:34;6.95;;;2.28;;
32613;SDS011;19031;51.400;6.770;2022-10-31T13:47:02;9.73;;;2.60;;
32613;SDS011;19031;51.400;6.770;2022-10-31T13:52:12;11.98;;;2.38;;
32613;SDS011;19031;51.400;6.770;2022-10-31T13:54:48;5.57;;;1.73;;
32613;SDS011;19031;51.400;6.770;2022-10-31T14:00:05;4.93;;;2.25;;
32613;SDS011;19031;51.400;6.770;2022-10-31T14:02:47;9.27;;;2.33;;
32613;SDS011;19031;51.400;6.770;2022-10-31T14:05:21;8.73;;;2.20;;
32613;SDS011;19031;51.400;6.770;2022-10-31T14:07:50;7.47;;;2.00;;
32613;SDS011;19031;51.400;6.770;2022-10-31T14:13:04;9.38;;;2.53;;
32613;SDS011;19031;51.400;6.770;2022-10-31T14:15:53;11.10;;;2.00;;
32613;SDS011;19031;51.400;6.770;2022-10-31T14:18:22;11.38;;;2.78;;
32613;SDS011;19031;51.400;6.770;2022-10-31T14:20:48;5.38;;;1.98;;
32613;SDS011;19031;51.400;6.770;2022-10-31T14:28:42;6.63;;;2.60;;
32613;SDS011;19031;51.400;6.770;2022-10-31T14:31:35;12.10;;;2.35;;
32613;SDS011;19031;51.400;6.770;2022-10-31T14:34:26;10.20;;;1.83;;
32613;SDS011;19031;51.400;6.770;2022-10-31T14:48:10;13.98;;;2.85;;
32613;SDS011;19031;51.400;6.770;2022-10-31T14:53:21;10.55;;;2.10;;
32613;SDS011;19031;51.400;6.770;2022-10-31T14:55:55;11.00;;;2.13;;
32613;SDS011;19031;51.400;6.770;2022-10-31T14:58:24;11.60;;;2.03;;
32613;SDS011;19031;51.400;6.770;2022-10-31T15:01:04;5.28;;;2.17;;
32613;SDS011;19031;51.400;6.770;2022-10-31T15:03:35;3.45;;;1.92;;
32613;SDS011;19031;51.400;6.770;2022-10-31T15:06:05;10.00;;;1.98;;
32613;SDS011;19031;51.400;6.770;2022-10-31T15:08:46;6.35;;;2.55;;
32613;SDS011;19031;51.400;6.770;2022-10-31T15:11:18;6.75;;;2.25;;
32613;SDS011;19031;51.400;6.770;2022-10-31T15:13:46;10.20;;;1.77;;
32613;SDS011;19031;51.400;6.770;2022-10-31T15:16:15;6.03;;;1.67;;
32613;SDS011;19031;51.400;6.770;2022-10-31T15:19:05;5.07;;;1.85;;
32613;SDS011;19031;51.400;6.770;2022-10-31T15:21:32;5.13;;;1.48;;
32613;SDS011;19031;51.400;6.770;2022-10-31T15:23:59;7.50;;;1.92;;
32613;SDS011;19031;51.400;6.770;2022-10-31T15:26:28;8.40;;;2.40;;
32613;SDS011;19031;51.400;6.770;2022-10-31T15:29:01;3.13;;;2.08;;
32613;SDS011;19031;51.400;6.770;2022-10-31T15:31:29;10.05;;;1.95;;
32613;SDS011;19031;51.400;6.770;2022-10-31T15:33:59;18.17;;;4.03;;
32613;SDS011;19031;51.400;6.770;2022-10-31T15:36:29;6.80;;;1.85;;
32613;SDS011;19031;51.400;6.770;2022-10-31T15:38:55;5.97;;;2.70;;
32613;SDS011;19031;51.400;6.770;2022-10-31T15:41:29;7.80;;;1.73;;
32613;SDS011;19031;51.400;6.770;2022-10-31T15:44:10;4.22;;;2.30;;
32613;SDS011;19031;51.400;6.770;2022-10-31T15:46:39;8.20;;;2.10;;
32613;SDS011;19031;51.400;6.770;2022-10-31T15:49:10;4.50;;;2.05;;
32613;SDS011;19031;51.400;6.770;2022-10-31T15:51:47;5.07;;;2.00;;
32613;SDS011;19031;51.400;6.770;2022-10-31T15:54:12;7.32;;;1.92;;
32613;SDS011;19031;51.400;6.770;2022-10-31T15:56:39;4.68;;;2.00;;
32613;SDS011;19031;51.400;6.770;2022-10-31T15:59:11;6.35;;;2.35;;
32613;SDS011;19031;51.400;6.770;2022-10-31T16:01:53;9.60;;;2.33;;
32613;SDS011;19031;51.400;6.770;2022-10-31T16:04:33;7.90;;;2.03;;
32613;SDS011;19031;51.400;6.770;2022-10-31T16:06:59;10.80;;;2.22;;
32613;SDS011;19031;51.400;6.770;2022-10-31T16:09:27;5.00;;;2.03;;
32613;SDS011;19031;51.400;6.770;2022-10-31T16:11:54;7.03;;;2.05;;
32613;SDS011;19031;51.400;6.770;2022-10-31T16:14:22;4.68;;;1.98;;
32613;SDS011;19031;51.400;6.770;2022-10-31T16:16:51;9.20;;;2.40;;
32613;SDS011;19031;51.400;6.770;2022-10-31T16:19:22;9.70;;;2.55;;
32613;SDS011;19031;51.400;6.770;2022-10-31T16:21:50;18.60;;;3.10;;
32613;SDS011;19031;51.400;6.770;2022-10-31T16:26:51;12.52;;;3.83;;
32613;SDS011;19031;51.400;6.770;2022-10-31T16:29:24;12.93;;;3.60;;
32613;SDS011;19031;51.400;6.770;2022-10-31T16:31:57;9.05;;;3.35;;
32613;SDS011;19031;51.400;6.770;2022-10-31T16:34:23;8.88;;;3.38;;
32613;SDS011;19031;51.400;6.770;2022-10-31T16:36:49;5.03;;;2.22;;
32613;SDS011;19031;51.400;6.770;2022-10-31T16:39:15;5.35;;;2.28;;
32613;SDS011;19031;51.400;6.770;2022-10-31T16:41:42;12.05;;;2.70;;
32613;SDS011;19031;51.400;6.770;2022-10-31T16:44:15;14.32;;;2.97;;
32613;SDS011;19031;51.400;6.770;2022-10-31T16:46:44;9.70;;;4.65;;
32613;SDS011;19031;51.400;6.770;2022-10-31T16:49:10;17.17;;;4.25;;
32613;SDS011;19031;51.400;6.770;2022-10-31T16:51:36;9.68;;;3.78;;
32613;SDS011;19031;51.400;6.770;2022-10-31T16:54:02;16.38;;;3.70;;
32613;SDS011;19031;51.400;6.770;2022-10-31T16:56:29;17.63;;;4.18;;
32613;SDS011;19031;51.400;6.770;2022-10-31T16:58:56;13.80;;;3.60;;
32613;SDS011;19031;51.400;6.770;2022-10-31T17:01:22;8.50;;;3.17;;
32613;SDS011;19031;51.400;6.770;2022-10-31T17:03:48;7.07;;;3.30;;
32613;SDS011;19031;51.400;6.770;2022-10-31T17:06:14;11.00;;;3.50;;
32613;SDS011;19031;51.400;6.770;2022-10-31T17:08:40;9.57;;;3.58;;
32613;SDS011;19031;51.400;6.770;2022-10-31T17:11:05;11.10;;;4.30;;
32613;SDS011;19031;51.400;6.770;2022-10-31T17:13:39;6.35;;;3.00;;
32613;SDS011;19031;51.400;6.770;2022-10-31T17:16:05;9.70;;;3.40;;
32613;SDS011;19031;51.400;6.770;2022-10-31T17:18:30;5.85;;;3.08;;
32613;SDS011;19031;51.400;6.770;2022-10-31T17:20:57;11.18;;;3.65;;
32613;SDS011;19031;51.400;6.770;2022-10-31T17:23:24;12.77;;;3.78;;
32613;SDS011;19031;51.400;6.770;2022-10-31T17:25:50;13.13;;;3.50;;
32613;SDS011;19031;51.400;6.770;2022-10-31T17:28:16;6.95;;;2.53;;
32613;SDS011;19031;51.400;6.770;2022-10-31T17:30:42;7.28;;;3.55;;
32613;SDS011;19031;51.400;6.770;2022-10-31T17:33:11;11.45;;;3.45;;